Terminal Aerodrome Forecast
Issued by NWS

Current Version | Previous Version | Text Only | Print | Product List | Glossary On
Versions: 1 2 3 4 5 6 7 8 9 10 11 12 13 14 15 16 17 18 19 20
817 FTUS41 KILN 251036 AAA TAFLCK TAF AMD KLCK 251036Z 2511/2606 05004KT P6SM SKC FM251500 08005KT P6SM SKC=

USA.gov is the U.S. government's official web portal to all federal, state and local government web resources and services.